Time;durP1;ratioP1;P1;durP2;ratioP2;P2;SDS_P1;SDS_P2;PMS_P1;PMS_P2;Temp;Humidity;BMP_temperature;BMP_pressure;BME280_temperature;BME280_humidity;BME280_pressure;Samples;Min_cycle;Max_cycle;Signal;HPM_P1;HPM_P2
2021/12/04 00:01:48;;;;;;;113.05;37.50;;;4.80;99.90;;;;;;5064302;28;20042;-78
2021/12/04 00:04:20;;;;;;;119.20;36.92;;;4.80;99.90;;;;;;5087114;27;20468;-78
2021/12/04 00:06:46;;;;;;;119.40;38.30;;;4.80;99.90;;;;;;5077584;28;20500;-78
2021/12/04 00:09:14;;;;;;;121.53;38.37;;;4.80;99.90;;;;;;5089793;27;20074;-78
2021/12/04 00:11:47;;;;;;;117.82;39.83;;;4.80;99.90;;;;;;5076882;27;20061;-78
2021/12/04 00:14:13;;;;;;;122.60;39.13;;;4.80;99.90;;;;;;5078984;27;20507;-78
2021/12/04 00:16:38;;;;;;;116.63;40.27;;;4.80;99.90;;;;;;5093216;27;20074;-78
2021/12/04 00:19:04;;;;;;;130.80;40.00;;;4.80;99.90;;;;;;5073707;27;20390;-78
2021/12/04 00:21:30;;;;;;;141.13;40.87;;;4.80;99.90;;;;;;5109682;27;20447;-78
2021/12/04 00:23:56;;;;;;;137.13;40.77;;;4.80;99.90;;;;;;5110039;27;20031;-78
2021/12/04 00:26:21;;;;;;;147.30;43.27;;;4.80;99.90;;;;;;5092823;27;20043;-78
2021/12/04 00:28:47;;;;;;;159.90;43.43;;;4.80;99.90;;;;;;5093484;27;20050;-78
2021/12/04 00:31:13;;;;;;;164.50;44.90;;;4.80;99.90;;;;;;5111698;27;20047;-78
2021/12/04 00:33:42;;;;;;;171.00;43.80;;;4.80;99.90;;;;;;5095219;27;20472;-78
2021/12/04 00:36:13;;;;;;;171.95;44.03;;;4.80;99.90;;;;;;5094058;28;20043;-78
2021/12/04 00:49:18;;;;;;;180.45;44.40;;;4.80;99.90;;;;;;5100342;27;20039;-78
2021/12/04 00:51:54;;;;;;;182.25;44.45;;;4.80;99.90;;;;;;5111079;27;20047;-78
2021/12/04 00:54:22;;;;;;;199.55;46.75;;;4.80;99.90;;;;;;5085336;28;20136;-78
2021/12/04 00:56:49;;;;;;;230.13;49.17;;;4.80;99.90;;;;;;5092083;27;20043;-78
2021/12/04 00:59:16;;;;;;;224.25;47.78;;;4.80;99.90;;;;;;5095583;27;20043;-78
2021/12/04 01:01:43;;;;;;;204.43;46.42;;;4.80;99.90;;;;;;5094397;27;20138;-78
2021/12/04 01:04:14;;;;;;;217.15;47.92;;;4.70;99.90;;;;;;5094855;27;20046;-78
2021/12/04 01:06:40;;;;;;;201.20;45.58;;;4.70;99.90;;;;;;5111025;27;20337;-78
2021/12/04 01:09:08;;;;;;;277.52;51.80;;;4.70;99.90;;;;;;5112156;27;20519;-78
2021/12/04 01:11:35;;;;;;;251.10;49.95;;;4.70;99.90;;;;;;5094987;27;20065;-78
2021/12/04 01:14:01;;;;;;;229.57;48.78;;;4.70;99.90;;;;;;5077323;27;20039;-78
2021/12/04 01:16:27;;;;;;;227.50;47.60;;;4.70;99.90;;;;;;5076345;27;20043;-78
2021/12/04 01:18:52;;;;;;;238.60;47.60;;;4.70;99.90;;;;;;5112407;27;20579;-77
2021/12/04 01:21:20;;;;;;;295.87;51.70;;;4.70;99.90;;;;;;5091300;28;20043;-78
2021/12/04 01:23:46;;;;;;;293.20;49.35;;;4.70;99.90;;;;;;5087766;27;20052;-78
2021/12/04 01:26:11;;;;;;;242.33;47.47;;;4.70;99.90;;;;;;5089547;28;20393;-78
2021/12/04 01:28:37;;;;;;;267.70;49.20;;;4.70;99.90;;;;;;5092328;27;20046;-78
2021/12/04 01:31:03;;;;;;;298.13;52.77;;;4.70;99.90;;;;;;5089184;28;20043;-78
2021/12/04 01:33:29;;;;;;;242.97;47.93;;;4.70;99.90;;;;;;5085873;27;20054;-78
2021/12/04 01:35:54;;;;;;;297.73;53.33;;;4.70;99.90;;;;;;5075860;27;20564;-78
2021/12/04 01:38:20;;;;;;;292.77;55.10;;;4.70;99.90;;;;;;5076907;27;20072;-78
2021/12/04 01:40:46;;;;;;;259.47;49.60;;;4.70;99.90;;;;;;5094286;27;20050;-78
2021/12/04 01:43:12;;;;;;;274.77;50.97;;;4.70;99.90;;;;;;5082806;27;20039;-78
2021/12/04 01:45:37;;;;;;;232.07;48.10;;;4.70;99.90;;;;;;5093548;27;20044;-78
2021/12/04 01:48:04;;;;;;;295.90;52.87;;;4.70;99.90;;;;;;5093769;27;20032;-78
2021/12/04 01:50:32;;;;;;;332.92;54.15;;;4.70;99.90;;;;;;5110610;27;20042;-78
2021/12/04 01:52:59;;;;;;;345.75;58.08;;;4.60;99.90;;;;;;5091306;27;20100;-78
2021/12/04 01:55:31;;;;;;;273.05;52.42;;;4.60;99.90;;;;;;5057975;27;20040;-78
2021/12/04 01:58:00;;;;;;;306.90;54.30;;;4.60;99.90;;;;;;5097298;27;20043;-78
2021/12/04 02:00:30;;;;;;;268.55;52.05;;;4.60;99.90;;;;;;5127627;27;20514;-78
2021/12/04 02:02:56;;;;;;;275.40;49.88;;;4.60;99.90;;;;;;5060521;27;20294;-78
2021/12/04 02:05:22;;;;;;;278.97;50.87;;;4.60;99.90;;;;;;5056692;28;20436;-78
2021/12/04 02:07:47;;;;;;;274.77;48.50;;;4.60;99.90;;;;;;5090579;27;20035;-78
2021/12/04 02:10:13;;;;;;;311.97;52.77;;;4.60;99.90;;;;;;5074761;27;20035;-78
2021/12/04 02:12:40;;;;;;;322.33;53.27;;;4.60;99.90;;;;;;5091895;27;20035;-78
2021/12/04 02:15:09;;;;;;;282.08;51.60;;;4.60;99.90;;;;;;5055440;27;20140;-78
2021/12/04 02:17:35;;;;;;;297.40;52.33;;;4.60;99.90;;;;;;5109204;27;20050;-78
2021/12/04 02:20:01;;;;;;;302.50;51.20;;;4.50;99.90;;;;;;5093280;27;20045;-78
2021/12/04 02:22:27;;;;;;;335.17;55.58;;;4.60;99.90;;;;;;5076198;27;20062;-78
2021/12/04 02:24:53;;;;;;;293.87;51.97;;;4.50;99.90;;;;;;5092948;27;20043;-78
2021/12/04 02:27:18;;;;;;;246.33;47.37;;;4.50;99.90;;;;;;5070538;27;20035;-78
2021/12/04 02:29:47;;;;;;;267.33;49.87;;;4.50;99.90;;;;;;5093346;27;20506;-78
2021/12/04 02:32:14;;;;;;;276.52;49.30;;;4.50;99.90;;;;;;5091192;27;20039;-78
2021/12/04 02:34:41;;;;;;;263.90;48.17;;;4.50;99.90;;;;;;5110098;27;20038;-78
2021/12/04 02:37:08;;;;;;;243.68;48.05;;;4.50;99.90;;;;;;5090660;27;20389;-78
2021/12/04 02:39:36;;;;;;;221.88;45.70;;;4.50;99.90;;;;;;5109633;27;20039;-78
2021/12/04 02:42:06;;;;;;;212.25;45.13;;;4.50;99.90;;;;;;5100833;28;20108;-78
2021/12/04 02:44:38;;;;;;;244.90;47.95;;;4.50;99.90;;;;;;5099907;28;20434;-76
2021/12/04 02:47:04;;;;;;;246.48;47.55;;;4.40;99.90;;;;;;5089929;27;20039;-76
2021/12/04 02:49:30;;;;;;;180.75;41.90;;;4.50;99.90;;;;;;5105990;28;20036;-77
2021/12/04 02:52:03;;;;;;;194.83;44.27;;;4.50;99.90;;;;;;5069972;27;20038;-76
2021/12/04 02:54:30;;;;;;;204.95;44.72;;;4.50;99.90;;;;;;5090305;27;20051;-76
2021/12/04 02:56:56;;;;;;;230.80;46.95;;;4.40;99.90;;;;;;5091444;27;20098;-76
2021/12/04 02:59:22;;;;;;;230.13;44.43;;;4.50;99.90;;;;;;5105486;28;20489;-76
2021/12/04 03:01:52;;;;;;;187.30;42.55;;;4.40;99.90;;;;;;5090826;27;20097;-76
2021/12/04 03:04:18;;;;;;;198.27;43.60;;;4.50;99.90;;;;;;5092473;27;20484;-76
2021/12/04 03:06:47;;;;;;;211.50;43.70;;;4.50;99.90;;;;;;5108573;27;20046;-76
2021/12/04 03:09:14;;;;;;;227.93;45.45;;;4.40;99.90;;;;;;5092219;27;20043;-76
2021/12/04 03:11:40;;;;;;;236.70;44.17;;;4.50;99.90;;;;;;5092766;27;20046;-76
2021/12/04 03:14:06;;;;;;;223.77;45.07;;;4.50;99.90;;;;;;5055663;28;20052;-76
2021/12/04 03:16:34;;;;;;;225.65;44.38;;;4.50;99.90;;;;;;5091321;27;20034;-76
2021/12/04 03:19:00;;;;;;;224.70;44.45;;;4.40;99.90;;;;;;5090035;28;20043;-76
2021/12/04 03:21:26;;;;;;;217.27;42.63;;;4.50;99.90;;;;;;5092265;28;20047;-76
2021/12/04 03:23:58;;;;;;;277.33;46.20;;;4.50;99.90;;;;;;5091886;28;20321;-76
2021/12/04 03:26:25;;;;;;;261.88;47.72;;;4.40;99.90;;;;;;5075420;28;20610;-76
2021/12/04 03:28:52;;;;;;;221.40;42.88;;;4.40;99.90;;;;;;5108734;28;20049;-76
2021/12/04 03:42:27;;;;;;;306.70;47.63;;;4.40;99.90;;;;;;5091584;28;20474;-76
2021/12/04 03:44:54;;;;;;;253.97;44.97;;;4.40;99.90;;;;;;5077400;27;20074;-76
2021/12/04 03:47:20;;;;;;;251.70;44.05;;;4.40;99.90;;;;;;5074745;28;20035;-76
2021/12/04 03:49:47;;;;;;;223.48;41.13;;;4.50;99.90;;;;;;5085239;27;20038;-76
2021/12/04 03:52:14;;;;;;;225.63;43.55;;;4.50;99.90;;;;;;5096064;27;20043;-76
2021/12/04 03:54:39;;;;;;;284.88;47.33;;;4.40;99.90;;;;;;5094880;27;20162;-76
2021/12/04 03:57:06;;;;;;;229.30;42.83;;;4.50;99.90;;;;;;5098069;27;20039;-77
2021/12/04 03:59:34;;;;;;;220.75;40.38;;;4.50;99.90;;;;;;5095460;27;20043;-77
2021/12/04 04:02:00;;;;;;;218.85;40.67;;;4.50;99.90;;;;;;5112563;27;20073;-77
2021/12/04 04:04:25;;;;;;;245.17;44.40;;;4.40;99.90;;;;;;5094224;27;20074;-76
2021/12/04 04:06:51;;;;;;;283.07;46.97;;;4.50;99.90;;;;;;5094562;27;20027;-76
2021/12/04 04:09:17;;;;;;;251.70;42.67;;;4.50;99.90;;;;;;5078435;27;20031;-76
2021/12/04 04:11:43;;;;;;;328.37;49.87;;;4.50;99.90;;;;;;5079044;27;20053;-76
2021/12/04 04:14:09;;;;;;;269.80;44.07;;;4.50;99.90;;;;;;5094069;27;20492;-76
2021/12/04 04:16:38;;;;;;;275.80;44.40;;;4.40;99.90;;;;;;5107531;28;20031;-76
2021/12/04 04:19:04;;;;;;;238.00;43.88;;;4.40;99.90;;;;;;5111888;27;20047;-76
2021/12/04 04:21:30;;;;;;;294.23;44.70;;;4.50;99.90;;;;;;5095198;27;20039;-76
2021/12/04 04:23:56;;;;;;;274.93;43.40;;;4.50;99.90;;;;;;5094888;27;20035;-76
2021/12/04 04:26:22;;;;;;;263.97;43.30;;;4.50;99.90;;;;;;5094588;27;20468;-76
2021/12/04 04:28:48;;;;;;;276.90;45.05;;;4.40;99.90;;;;;;5095238;27;20396;-76
2021/12/04 04:31:14;;;;;;;286.60;44.87;;;4.40;99.90;;;;;;5095711;27;20116;-76
2021/12/04 04:33:43;;;;;;;306.27;48.67;;;4.50;99.90;;;;;;5095707;27;20487;-76
2021/12/04 04:36:21;;;;;;;319.70;47.42;;;4.50;99.90;;;;;;5077518;27;20377;-76
2021/12/04 04:40:15;;;;;;;235.63;38.60;;;4.50;99.90;;;;;;5112260;27;20085;-76
2021/12/04 05:14:24;;;;;;;346.65;44.67;;;4.50;99.90;;;;;;5110985;27;20415;-77
2021/12/04 05:16:53;;;;;;;302.67;45.77;;;4.50;99.90;;;;;;5076482;27;20027;-77
2021/12/04 05:19:45;;;;;;;343.38;45.20;;;4.50;99.90;;;;;;5111386;27;20047;-77
2021/12/04 05:22:14;;;;;;;313.02;44.10;;;4.50;99.90;;;;;;5080709;27;20063;-77
2021/12/04 05:24:41;;;;;;;297.40;41.72;;;4.50;99.90;;;;;;5092436;27;20643;-77
2021/12/04 05:27:08;;;;;;;322.20;44.38;;;4.50;99.90;;;;;;5109636;27;20507;-77
2021/12/04 05:29:35;;;;;;;305.63;42.35;;;4.50;99.90;;;;;;5090931;28;20469;-77
2021/12/04 05:32:02;;;;;;;300.52;42.67;;;4.50;99.90;;;;;;5089354;27;20543;-77
2021/12/04 05:34:29;;;;;;;334.10;45.45;;;4.50;99.90;;;;;;5087437;28;20039;-77
2021/12/04 05:36:55;;;;;;;319.17;43.03;;;4.50;99.90;;;;;;5103941;27;20046;-77
2021/12/04 05:39:21;;;;;;;297.13;42.50;;;4.50;99.90;;;;;;5077000;27;20039;-77
2021/12/04 05:41:47;;;;;;;348.23;45.00;;;4.50;99.90;;;;;;5090226;27;20099;-77
2021/12/04 05:44:15;;;;;;;284.10;41.90;;;4.50;99.90;;;;;;5093358;27;20816;-77
2021/12/04 05:46:54;;;;;;;302.88;41.78;;;4.50;99.90;;;;;;5093597;27;20762;-77
2021/12/04 05:49:35;;;;;;;304.58;42.15;;;4.50;99.90;;;;;;5093484;27;20046;-77
2021/12/04 05:55:09;;;;;;;344.13;43.95;;;4.50;99.90;;;;;;5051505;27;20080;-77
2021/12/04 05:57:35;;;;;;;277.13;40.08;;;4.50;99.90;;;;;;5081049;27;20046;-77
2021/12/04 06:00:01;;;;;;;288.13;41.87;;;4.50;99.90;;;;;;5076172;27;20115;-77
2021/12/04 06:02:27;;;;;;;339.42;44.00;;;4.50;99.90;;;;;;5092727;27;20047;-77
2021/12/04 06:04:52;;;;;;;347.47;43.00;;;4.60;99.90;;;;;;5074895;27;20382;-77
2021/12/04 06:07:18;;;;;;;313.07;42.73;;;4.50;99.90;;;;;;5091914;27;20493;-77
2021/12/04 06:09:44;;;;;;;332.80;42.27;;;4.60;99.90;;;;;;5109816;27;20035;-77
2021/12/04 06:12:09;;;;;;;396.47;47.77;;;4.60;99.90;;;;;;5091683;27;20155;-77
2021/12/04 06:14:35;;;;;;;278.23;38.33;;;4.50;99.90;;;;;;5089237;28;20039;-77
2021/12/04 06:17:01;;;;;;;345.23;45.17;;;4.60;99.90;;;;;;5101475;27;20035;-77
2021/12/04 06:22:37;;;;;;;286.83;41.27;;;4.60;99.90;;;;;;5092812;27;20511;-77
2021/12/04 06:24:58;;;;;;;294.85;39.63;;;4.50;99.90;;;;;;5100265;27;20500;-77
2021/12/04 06:27:24;;;;;;;338.25;43.25;;;4.50;99.90;;;;;;5110225;27;20571;-77
2021/12/04 06:29:50;;;;;;;341.17;42.73;;;4.60;99.90;;;;;;5092660;27;20035;-77
2021/12/04 06:32:16;;;;;;;353.98;44.38;;;4.60;99.90;;;;;;5092894;27;20043;-77
2021/12/04 06:34:42;;;;;;;339.90;48.23;;;4.50;99.90;;;;;;5052084;28;20607;-77
2021/12/04 06:37:08;;;;;;;318.60;45.90;;;4.60;99.90;;;;;;5072300;27;20042;-77
2021/12/04 06:39:34;;;;;;;350.33;45.60;;;4.60;99.90;;;;;;5086641;28;20096;-77
2021/12/04 06:42:00;;;;;;;408.40;50.57;;;4.50;99.90;;;;;;5086021;28;20032;-77
2021/12/04 06:44:26;;;;;;;346.57;44.20;;;4.60;99.90;;;;;;5072545;27;20091;-77
2021/12/04 06:46:52;;;;;;;380.25;47.40;;;4.60;99.90;;;;;;5071286;28;20038;-77
2021/12/04 06:49:25;;;;;;;431.83;50.63;;;4.60;99.90;;;;;;5087837;27;20031;-77
2021/12/04 06:51:55;;;;;;;391.13;50.47;;;4.60;99.90;;;;;;5093799;27;20054;-77
2021/12/04 06:54:33;;;;;;;393.85;50.83;;;4.60;99.90;;;;;;5105257;28;20126;-77
2021/12/04 06:56:59;;;;;;;475.88;54.83;;;4.60;99.90;;;;;;5084742;27;20039;-77
2021/12/04 06:59:31;;;;;;;290.33;42.60;;;4.60;99.90;;;;;;5075179;27;20057;-77
2021/12/04 07:01:57;;;;;;;296.33;42.45;;;4.60;99.90;;;;;;5092941;27;20371;-77
2021/12/04 07:04:29;;;;;;;362.95;47.50;;;4.50;99.90;;;;;;5092509;27;20035;-77
2021/12/04 07:06:55;;;;;;;382.17;45.53;;;4.60;99.90;;;;;;5092758;27;20110;-77
2021/12/04 07:09:20;;;;;;;348.20;46.03;;;4.60;99.90;;;;;;5075102;27;20129;-77
2021/12/04 07:11:47;;;;;;;276.47;40.83;;;4.50;99.90;;;;;;5088905;28;20080;-77
2021/12/04 07:14:12;;;;;;;288.23;42.13;;;4.50;99.90;;;;;;5088697;27;20492;-77
2021/12/04 07:16:38;;;;;;;310.83;40.97;;;4.60;99.90;;;;;;5074445;27;20035;-77
2021/12/04 07:19:04;;;;;;;395.47;47.70;;;4.60;99.90;;;;;;5091964;28;20043;-77
2021/12/04 07:21:29;;;;;;;438.83;49.20;;;4.50;99.90;;;;;;5086689;28;20128;-77
2021/12/04 07:23:56;;;;;;;303.45;41.47;;;4.50;99.90;;;;;;5059487;27;20323;-77
2021/12/04 07:26:22;;;;;;;348.93;42.47;;;4.50;99.90;;;;;;5074326;28;20031;-77
2021/12/04 07:28:48;;;;;;;348.33;44.30;;;4.50;99.90;;;;;;5091780;28;20774;-77
2021/12/04 07:31:13;;;;;;;307.40;40.63;;;4.50;99.90;;;;;;5092464;28;20045;-77
2021/12/04 07:33:39;;;;;;;283.60;39.47;;;4.60;99.90;;;;;;5074571;28;20047;-77
2021/12/04 07:36:05;;;;;;;286.73;39.93;;;4.60;99.90;;;;;;5099582;28;20061;-77
2021/12/04 07:38:31;;;;;;;269.60;38.23;;;4.60;99.90;;;;;;5075051;28;20043;-77
2021/12/04 07:41:00;;;;;;;335.10;42.03;;;4.50;99.90;;;;;;5072234;28;20039;-77
2021/12/04 07:43:27;;;;;;;280.33;39.42;;;4.60;99.90;;;;;;5077297;28;20042;-77
2021/12/04 07:45:53;;;;;;;384.40;44.83;;;4.60;99.90;;;;;;5073737;28;20047;-77
2021/12/04 07:48:19;;;;;;;336.38;42.28;;;4.50;99.90;;;;;;5074431;28;20040;-77
2021/12/04 07:50:44;;;;;;;393.50;46.57;;;4.50;99.90;;;;;;5087272;28;20054;-77
2021/12/04 07:53:11;;;;;;;351.33;44.87;;;4.60;99.90;;;;;;5084805;28;20046;-77
2021/12/04 07:55:37;;;;;;;355.63;44.35;;;4.50;99.90;;;;;;5087201;28;20082;-77
2021/12/04 07:58:03;;;;;;;291.23;40.20;;;4.60;99.90;;;;;;5102239;28;20502;-77
2021/12/04 08:00:29;;;;;;;314.98;43.20;;;4.50;99.90;;;;;;5088456;28;20067;-77
2021/12/04 08:02:55;;;;;;;273.10;40.00;;;4.50;99.90;;;;;;5085879;28;20042;-77
2021/12/04 08:05:21;;;;;;;231.03;35.87;;;4.60;99.90;;;;;;5103493;28;20043;-77
2021/12/04 08:07:47;;;;;;;242.17;37.67;;;4.60;99.90;;;;;;5084030;28;20130;-77
2021/12/04 08:10:15;;;;;;;240.80;37.83;;;4.60;99.90;;;;;;5087626;28;20543;-77
2021/12/04 08:12:41;;;;;;;223.13;36.88;;;4.60;99.90;;;;;;5100910;28;20039;-77
2021/12/04 08:15:10;;;;;;;283.83;40.40;;;4.60;99.90;;;;;;5100566;28;20540;-77
2021/12/04 08:17:37;;;;;;;248.00;37.30;;;4.60;99.90;;;;;;5086212;28;20049;-77
2021/12/04 08:20:05;;;;;;;279.30;39.83;;;4.50;99.90;;;;;;5102012;28;20118;-77
2021/12/04 08:22:33;;;;;;;246.65;37.55;;;4.60;99.90;;;;;;5065052;28;20134;-77
2021/12/04 08:24:59;;;;;;;227.65;36.25;;;4.60;99.90;;;;;;5099859;28;20498;-77
2021/12/04 08:27:25;;;;;;;281.70;39.20;;;4.60;99.90;;;;;;5088652;28;20034;-77
2021/12/04 08:29:51;;;;;;;222.90;37.33;;;4.60;99.90;;;;;;5097373;28;20046;-77
2021/12/04 08:32:17;;;;;;;243.27;37.10;;;4.60;99.90;;;;;;5069446;28;20444;-77
2021/12/04 08:34:43;;;;;;;250.33;37.73;;;4.60;99.90;;;;;;5099442;28;20043;-77
2021/12/04 08:37:09;;;;;;;204.50;33.83;;;4.60;99.90;;;;;;5057295;28;20061;-77
2021/12/04 08:39:34;;;;;;;225.13;36.90;;;4.60;99.90;;;;;;5108278;28;20525;-77
2021/12/04 08:42:00;;;;;;;220.17;34.73;;;4.60;99.90;;;;;;5070016;28;20039;-77
2021/12/04 08:44:26;;;;;;;192.88;35.03;;;4.60;99.90;;;;;;5088487;28;20039;-77
2021/12/04 08:46:52;;;;;;;254.83;38.47;;;4.60;99.90;;;;;;5108166;28;20032;-77
2021/12/04 08:49:19;;;;;;;206.23;34.65;;;4.60;99.90;;;;;;5088304;28;20036;-77
2021/12/04 08:51:44;;;;;;;220.55;35.05;;;4.60;99.90;;;;;;5068606;28;20040;-77
2021/12/04 08:54:11;;;;;;;194.87;34.77;;;4.70;99.90;;;;;;5085839;28;20058;-77
2021/12/04 08:56:38;;;;;;;193.30;35.25;;;4.70;99.90;;;;;;5087365;28;20077;-77
2021/12/04 08:59:05;;;;;;;189.10;33.72;;;4.70;99.90;;;;;;5070416;28;20040;-77
2021/12/04 09:01:34;;;;;;;217.77;36.80;;;4.70;99.90;;;;;;5071833;28;20054;-77
2021/12/04 09:04:05;;;;;;;256.90;37.88;;;4.60;99.90;;;;;;5107210;28;20043;-77
2021/12/04 09:06:34;;;;;;;203.30;34.15;;;4.70;99.90;;;;;;5086881;28;20044;-77
2021/12/04 09:09:06;;;;;;;230.60;37.80;;;4.70;99.90;;;;;;5060594;28;20420;-77
2021/12/04 09:11:36;;;;;;;218.65;35.30;;;4.70;99.90;;;;;;5102947;28;20071;-77
2021/12/04 09:14:03;;;;;;;203.80;34.42;;;4.70;99.90;;;;;;5101517;28;20043;-77
2021/12/04 09:16:29;;;;;;;218.60;35.10;;;4.70;99.90;;;;;;5078318;28;20039;-77
2021/12/04 09:18:56;;;;;;;185.23;32.43;;;4.70;99.90;;;;;;5088012;28;20073;-77
2021/12/04 09:21:23;;;;;;;205.95;34.63;;;4.70;99.90;;;;;;5095033;27;20293;-77
2021/12/04 09:23:59;;;;;;;169.88;32.35;;;4.70;99.90;;;;;;5105630;27;20072;-77
2021/12/04 09:26:38;;;;;;;154.63;30.48;;;4.70;99.90;;;;;;5075196;27;20043;-77
2021/12/04 09:29:14;;;;;;;137.43;29.35;;;4.80;99.90;;;;;;5106720;27;20252;-77
2021/12/04 09:40:18;;;;;;;167.65;31.63;;;4.70;99.90;;;;;;5104296;27;20047;-77
2021/12/04 09:59:48;;;;;;;184.55;34.10;;;4.80;99.90;;;;;;5087853;27;20035;-77
2021/12/04 10:04:51;;;;;;;134.02;31.27;;;4.80;99.90;;;;;;5098712;27;20043;-77
2021/12/04 10:18:56;;;;;;;112.05;27.38;;;4.90;99.90;;;;;;5085552;27;20047;-77
2021/12/04 10:24:31;;;;;;;104.35;25.70;;;4.80;99.90;;;;;;5106691;27;20047;-77
2021/12/04 10:32:37;;;;;;;104.15;26.25;;;4.90;99.90;;;;;;5106224;27;20051;-77
2021/12/04 10:35:15;;;;;;;97.55;26.90;;;4.80;99.90;;;;;;5086519;27;20035;-77
2021/12/04 10:37:53;;;;;;;102.82;25.77;;;4.80;99.90;;;;;;5109852;27;20061;-77
2021/12/04 10:40:21;;;;;;;108.13;26.08;;;4.80;99.90;;;;;;5089852;27;20046;-77
2021/12/04 10:42:59;;;;;;;97.50;25.83;;;4.80;99.90;;;;;;5090394;27;20438;-77
2021/12/04 10:45:36;;;;;;;105.82;26.90;;;4.90;99.90;;;;;;5089047;28;20050;-77
2021/12/04 10:48:07;;;;;;;89.22;25.73;;;4.90;99.90;;;;;;5090061;27;20035;-77
2021/12/04 10:50:41;;;;;;;105.05;26.90;;;4.90;99.90;;;;;;5106628;27;20050;-77
2021/12/04 10:53:13;;;;;;;94.90;24.20;;;4.90;99.90;;;;;;5091666;27;20047;-77
2021/12/04 11:01:24;;;;;;;103.05;26.75;;;4.90;99.90;;;;;;5125151;27;20039;-77
2021/12/04 11:06:44;;;;;;;77.83;23.63;;;4.90;99.90;;;;;;5088729;27;20042;-77
2021/12/04 11:26:14;;;;;;;98.95;26.95;;;4.80;99.90;;;;;;5093499;28;20046;-77
2021/12/04 11:45:03;;;;;;;110.03;27.92;;;4.90;99.90;;;;;;5107728;28;20498;-77
2021/12/04 11:47:37;;;;;;;109.07;27.25;;;4.90;99.90;;;;;;5098513;28;20035;-77
2021/12/04 11:50:33;;;;;;;115.50;27.65;;;4.90;99.90;;;;;;5086090;28;20078;-77
2021/12/04 11:53:02;;;;;;;142.02;30.48;;;4.90;99.90;;;;;;5107412;28;20047;-77
2021/12/04 11:55:32;;;;;;;144.30;30.92;;;4.90;99.90;;;;;;5083312;28;20078;-77
2021/12/04 11:57:57;;;;;;;189.75;35.50;;;4.90;99.90;;;;;;5092002;27;20043;-77
2021/12/04 12:00:36;;;;;;;127.40;30.93;;;4.90;99.90;;;;;;5062548;27;20046;-77
2021/12/04 12:03:08;;;;;;;149.18;32.20;;;4.90;99.90;;;;;;5095742;27;20039;-77
2021/12/04 12:05:45;;;;;;;128.57;31.15;;;4.90;99.90;;;;;;5095205;27;20031;-77
2021/12/04 12:08:22;;;;;;;127.00;29.60;;;4.90;99.90;;;;;;5102288;27;20164;-77
2021/12/04 12:10:51;;;;;;;131.30;30.13;;;4.90;99.90;;;;;;5105194;27;20031;-77
2021/12/04 12:13:45;;;;;;;140.68;32.53;;;5.00;99.90;;;;;;5091528;27;20045;-77
2021/12/04 12:16:24;;;;;;;105.03;29.50;;;5.00;99.90;;;;;;5108314;27;20523;-78
2021/12/04 12:18:58;;;;;;;107.32;29.00;;;5.00;99.90;;;;;;5106412;27;20050;-78
2021/12/04 12:21:54;;;;;;;89.57;25.58;;;5.00;99.90;;;;;;5100282;27;20081;-78
2021/12/04 12:38:46;;;;;;;78.00;25.02;;;5.10;99.90;;;;;;5110941;27;20047;-78
2021/12/04 12:41:24;;;;;;;67.45;23.48;;;5.20;99.90;;;;;;5085876;27;20039;-78
2021/12/04 12:44:04;;;;;;;65.97;24.38;;;5.20;99.90;;;;;;5093603;27;20079;-78
2021/12/04 12:46:33;;;;;;;68.30;27.00;;;5.20;99.90;;;;;;5092913;27;20067;-78
2021/12/04 12:48:59;;;;;;;82.82;27.65;;;5.20;99.90;;;;;;5094850;27;20047;-78
2021/12/04 12:51:35;;;;;;;69.27;25.57;;;5.20;99.90;;;;;;5077852;27;20050;-78
2021/12/04 12:54:05;;;;;;;68.20;24.17;;;5.20;99.90;;;;;;5090844;28;20074;-78
2021/12/04 12:56:35;;;;;;;65.97;23.25;;;5.20;99.90;;;;;;5108229;27;20188;-78
2021/12/04 12:59:19;;;;;;;64.95;22.88;;;5.20;99.90;;;;;;5091486;28;20134;-78
2021/12/04 13:13:41;;;;;;;;;;;5.20;99.90;;;;;;5111166;27;20408;-78
2021/12/04 13:16:19;;;;;;;65.97;22.58;;;5.20;99.90;;;;;;5090663;27;19919;-78
2021/12/04 13:18:51;;;;;;;75.07;23.35;;;5.20;99.90;;;;;;5094933;27;20051;-78
2021/12/04 13:21:17;;;;;;;73.60;23.70;;;5.20;99.90;;;;;;5092452;27;20171;-78
2021/12/04 13:23:52;;;;;;;72.43;24.73;;;5.20;99.90;;;;;;5075264;27;20130;-78
2021/12/04 13:26:19;;;;;;;70.97;24.02;;;5.20;99.90;;;;;;5082019;28;20520;-78
2021/12/04 13:28:49;;;;;;;59.95;22.75;;;5.20;99.90;;;;;;5073215;27;20038;-78
2021/12/04 13:31:18;;;;;;;62.03;21.83;;;5.30;99.90;;;;;;5093172;27;20031;-78
2021/12/04 13:33:50;;;;;;;57.90;22.38;;;5.20;99.90;;;;;;5073178;27;20520;-78
2021/12/04 13:36:25;;;;;;;62.03;23.13;;;5.20;99.90;;;;;;5109921;27;20031;-78
2021/12/04 13:39:13;;;;;;;54.97;21.27;;;5.20;99.90;;;;;;5091948;27;20162;-78
2021/12/04 13:41:42;;;;;;;66.95;23.27;;;5.20;99.90;;;;;;5089713;27;20039;-78
2021/12/04 13:44:11;;;;;;;68.78;22.67;;;5.20;99.90;;;;;;5094330;27;20553;-78
2021/12/04 13:46:43;;;;;;;61.72;22.33;;;5.20;99.90;;;;;;5092973;27;20477;-78
2021/12/04 13:49:13;;;;;;;63.17;21.52;;;5.20;99.90;;;;;;5111367;27;20035;-78
2021/12/04 13:51:39;;;;;;;71.22;23.25;;;5.10;99.90;;;;;;5094574;27;20035;-78
2021/12/04 13:54:05;;;;;;;68.07;22.55;;;5.20;99.90;;;;;;5076921;27;20047;-78
2021/12/04 13:56:32;;;;;;;65.15;21.65;;;5.20;99.90;;;;;;5093037;27;20043;-78
2021/12/04 13:59:01;;;;;;;50.65;19.05;;;5.20;99.90;;;;;;5073337;28;20040;-78
2021/12/04 14:01:29;;;;;;;64.47;21.13;;;5.20;99.90;;;;;;5084146;28;20090;-78
2021/12/04 14:04:00;;;;;;;56.08;20.92;;;5.10;99.90;;;;;;5081572;28;20043;-78
2021/12/04 14:06:27;;;;;;;53.05;20.67;;;5.10;99.90;;;;;;5104717;27;20405;-78
2021/12/04 14:09:04;;;;;;;60.40;20.67;;;5.10;99.90;;;;;;5093004;27;20035;-78
2021/12/04 14:11:41;;;;;;;60.47;21.98;;;5.10;99.90;;;;;;5091594;28;20039;-78
2021/12/04 14:14:20;;;;;;;66.32;21.88;;;5.10;99.90;;;;;;5091141;27;20131;-78
2021/12/04 14:16:51;;;;;;;71.57;22.60;;;5.10;99.90;;;;;;5083865;27;20043;-78
2021/12/04 14:19:36;;;;;;;91.07;24.60;;;5.10;99.90;;;;;;5090727;27;20074;-78
2021/12/04 14:22:02;;;;;;;76.30;25.17;;;5.10;99.90;;;;;;5089052;28;20075;-78
2021/12/04 14:24:41;;;;;;;87.77;27.73;;;5.10;99.90;;;;;;5084923;27;20897;-78
2021/12/04 14:27:10;;;;;;;87.28;25.85;;;5.10;99.90;;;;;;5093520;27;20460;-78
2021/12/04 14:29:41;;;;;;;94.45;26.55;;;5.00;99.90;;;;;;5086092;28;20655;-78
2021/12/04 14:32:10;;;;;;;94.13;27.73;;;5.00;99.90;;;;;;5087819;27;20046;-78
2021/12/04 14:34:36;;;;;;;95.43;28.25;;;5.00;99.90;;;;;;5109988;27;20053;-78
2021/12/04 14:37:11;;;;;;;110.25;28.13;;;5.00;99.90;;;;;;5076906;27;20035;-78
2021/12/04 14:39:39;;;;;;;92.30;25.05;;;5.00;99.90;;;;;;5092110;27;20550;-78
2021/12/04 14:42:16;;;;;;;96.80;27.00;;;5.00;99.90;;;;;;5085389;27;20035;-78
2021/12/04 14:44:48;;;;;;;123.80;33.05;;;5.00;99.90;;;;;;5092687;27;20043;-78
2021/12/04 14:47:16;;;;;;;133.10;35.85;;;5.00;99.90;;;;;;5110379;27;20031;-78
2021/12/04 14:49:52;;;;;;;118.40;36.00;;;5.00;99.90;;;;;;5090827;27;20031;-78
2021/12/04 14:52:24;;;;;;;125.25;35.70;;;5.00;99.90;;;;;;5091522;27;20046;-78
2021/12/04 14:54:51;;;;;;;120.03;33.20;;;5.00;99.90;;;;;;5092601;27;20349;-78
2021/12/04 14:57:23;;;;;;;106.63;28.95;;;5.00;99.90;;;;;;5075797;27;20057;-78
2021/12/04 15:00:25;;;;;;;121.07;30.95;;;5.00;99.90;;;;;;5089061;28;20044;-80
2021/12/04 15:02:56;;;;;;;116.70;28.92;;;5.00;99.90;;;;;;5089253;27;20039;-80
2021/12/04 15:05:36;;;;;;;91.43;26.48;;;5.00;99.90;;;;;;5109121;27;20051;-80
2021/12/04 15:08:08;;;;;;;105.70;28.45;;;5.00;99.90;;;;;;5097741;27;20027;-80
2021/12/04 15:10:34;;;;;;;99.93;29.25;;;5.00;99.90;;;;;;5090404;27;20475;-80
2021/12/04 15:13:00;;;;;;;95.10;26.90;;;5.00;99.90;;;;;;5086352;28;20032;-80
2021/12/04 15:15:29;;;;;;;89.28;26.80;;;5.00;99.90;;;;;;5083447;28;20342;-80
2021/12/04 15:17:58;;;;;;;102.55;27.42;;;5.00;99.90;;;;;;5107617;27;20122;-80
2021/12/04 15:20:32;;;;;;;119.35;29.98;;;5.00;99.90;;;;;;5089534;27;20051;-80
2021/12/04 15:23:05;;;;;;;102.22;28.75;;;5.10;99.90;;;;;;5090643;27;20046;-79
2021/12/04 15:25:35;;;;;;;111.07;28.40;;;5.00;99.90;;;;;;5073817;27;20058;-79
2021/12/04 15:28:17;;;;;;;100.35;26.42;;;5.00;99.90;;;;;;5090195;28;20039;-79
2021/12/04 15:30:46;;;;;;;112.78;27.05;;;5.00;99.90;;;;;;5088108;28;20046;-79
2021/12/04 15:33:44;;;;;;;104.93;26.10;;;5.10;99.90;;;;;;5096226;28;20051;-79
2021/12/04 15:36:24;;;;;;;137.02;29.23;;;5.10;99.90;;;;;;5088365;28;20055;-80